Time;durP1;ratioP1;P1;durP2;ratioP2;P2;SDS_P1;SDS_P2;PMS_P1;PMS_P2;Temp;Humidity;BMP_temperature;BMP_pressure;BME280_temperature;BME280_humidity;BME280_pressure;Samples;Min_cycle;Max_cycle;Signal;HPM_P1;HPM_P2
2021/09/16 00:03:03;;;;;;;38.63;26.15;;;;;;;18.44;65.75;99670.50;10393492;28;20395;-64
2021/09/16 00:08:05;;;;;;;32.20;24.27;;;;;;;18.39;65.60;99671.94;10393642;28;20063;-64
2021/09/16 00:13:07;;;;;;;33.22;24.23;;;;;;;18.41;65.59;99664.69;10393393;28;20244;-64
2021/09/16 00:18:09;;;;;;;29.33;22.13;;;;;;;18.44;65.47;99664.41;10393568;28;20057;-64
2021/09/16 00:23:11;;;;;;;35.47;25.45;;;;;;;18.36;65.35;99665.13;10392921;28;20144;-64
2021/09/16 00:28:12;;;;;;;30.30;21.10;;;;;;;18.30;64.91;99670.19;10392829;28;20065;-64
2021/09/16 00:33:14;;;;;;;28.42;21.20;;;;;;;18.26;65.02;99677.56;10392917;28;20061;-64
2021/09/16 00:38:16;;;;;;;35.13;20.67;;;;;;;18.33;65.36;99677.81;10392791;28;20056;-64
2021/09/16 00:43:17;;;;;;;28.88;20.42;;;;;;;18.35;65.39;99678.50;10392231;28;20061;-64
2021/09/16 00:48:19;;;;;;;26.38;20.45;;;;;;;18.29;65.47;99687.03;10392970;28;20053;-64
2021/09/16 00:53:22;;;;;;;29.33;17.77;;;;;;;18.11;65.36;99692.25;10392308;28;20049;-64
2021/09/16 00:58:25;;;;;;;23.52;14.68;;;;;;;18.08;64.94;99686.38;10392353;28;20057;-64
2021/09/16 01:03:27;;;;;;;19.77;13.48;;;;;;;17.99;64.96;99687.28;10393181;28;20718;-64
2021/09/16 01:08:29;;;;;;;24.40;13.40;;;;;;;18.02;64.87;99682.53;10400227;28;20405;-65
2021/09/16 01:13:31;;;;;;;16.73;10.73;;;;;;;17.98;64.34;99689.06;10400274;28;20053;-64
2021/09/16 01:18:32;;;;;;;20.65;12.00;;;;;;;17.81;64.94;99711.00;10400317;28;20057;-64
2021/09/16 01:23:34;;;;;;;20.75;11.15;;;;;;;17.87;64.92;99706.94;10399629;28;20052;-64
2021/09/16 01:28:36;;;;;;;19.40;9.88;;;;;;;17.88;64.22;99705.94;10399490;28;20152;-64
2021/09/16 01:33:38;;;;;;;17.80;8.82;;;;;;;17.80;63.78;99715.47;10399497;28;20061;-64
2021/09/16 01:38:39;;;;;;;19.67;9.00;;;;;;;17.83;64.04;99719.63;10399096;28;20063;-64
2021/09/16 01:43:41;;;;;;;12.40;7.82;;;;;;;17.80;64.02;99719.91;10397548;28;20049;-64
2021/09/16 01:48:43;;;;;;;15.73;7.32;;;;;;;17.77;63.33;99721.00;10398861;28;20061;-64
2021/09/16 01:53:44;;;;;;;13.05;7.63;;;;;;;17.82;63.84;99729.38;10398257;28;20160;-64
2021/09/16 01:58:46;;;;;;;18.13;8.77;;;;;;;17.80;63.83;99722.56;10398395;28;20054;-64
2021/09/16 02:03:48;;;;;;;14.07;7.28;;;;;;;17.80;63.55;99726.03;10398110;28;20046;-64
2021/09/16 02:08:50;;;;;;;16.63;8.40;;;;;;;17.80;63.68;99733.97;10420988;28;20140;-64
2021/09/16 02:13:52;;;;;;;13.18;8.63;;;;;;;17.80;63.49;99730.47;10438867;28;20427;-64
2021/09/16 02:18:54;;;;;;;12.90;9.27;;;;;;;17.80;64.03;99731.31;10437711;28;20053;-64
2021/09/16 02:23:55;;;;;;;16.23;10.82;;;;;;;17.69;64.34;99726.19;10438390;28;20048;-64
2021/09/16 02:28:57;;;;;;;15.88;10.02;;;;;;;17.62;64.54;99725.09;10434660;28;20267;-64
2021/09/16 02:33:59;;;;;;;21.17;9.60;;;;;;;17.67;64.33;99725.50;10397290;28;20083;-64
2021/09/16 02:39:02;;;;;;;15.45;10.32;;;;;;;17.75;63.94;99727.44;10396775;28;20063;-64
2021/09/16 02:44:04;;;;;;;20.80;11.50;;;;;;;17.65;64.21;99723.94;10396603;28;20136;-64
2021/09/16 02:49:05;;;;;;;15.52;11.48;;;;;;;17.56;63.68;99728.31;10396595;28;20057;-64
2021/09/16 02:54:08;;;;;;;18.80;12.52;;;;;;;17.46;63.74;99737.22;10395930;28;20625;-64
2021/09/16 02:59:10;;;;;;;26.00;12.13;;;;;;;17.36;63.59;99739.88;10396783;28;20136;-64
2021/09/16 03:04:11;;;;;;;15.52;12.25;;;;;;;17.37;63.64;99748.59;10395964;28;20053;-64
2021/09/16 03:09:13;;;;;;;19.23;12.40;;;;;;;17.42;63.51;99744.59;10394805;28;20453;-64
2021/09/16 03:14:15;;;;;;;16.80;12.05;;;;;;;17.41;63.73;99752.66;10395717;28;20063;-64
2021/09/16 03:19:17;;;;;;;18.15;12.85;;;;;;;17.29;63.70;99746.63;10395769;28;20049;-64
2021/09/16 03:24:18;;;;;;;19.75;12.32;;;;;;;17.19;63.93;99750.25;10395929;28;20056;-64
2021/09/16 03:29:20;;;;;;;17.23;12.02;;;;;;;17.18;63.63;99752.03;10394799;28;20057;-64
2021/09/16 03:34:22;;;;;;;23.70;12.00;;;;;;;17.05;63.80;99751.47;10394763;28;20049;-64
2021/09/16 03:39:23;;;;;;;14.55;10.77;;;;;;;17.00;64.06;99748.41;10394516;28;20045;-64
2021/09/16 03:44:25;;;;;;;17.20;12.32;;;;;;;16.95;63.82;99755.91;10394268;28;20481;-64
2021/09/16 03:49:27;;;;;;;16.83;11.43;;;;;;;16.88;63.91;99752.97;10393968;28;20176;-64
2021/09/16 03:54:29;;;;;;;15.95;12.10;;;;;;;16.76;63.90;99755.84;10393657;28;20060;-64
2021/09/16 03:59:31;;;;;;;21.33;12.30;;;;;;;16.68;63.55;99755.69;10394186;28;20057;-64
2021/09/16 04:04:32;;;;;;;18.35;11.20;;;;;;;16.69;63.57;99767.94;10392126;28;20057;-64
2021/09/16 04:09:34;;;;;;;15.35;12.27;;;;;;;16.65;63.14;99769.19;10392836;28;20419;-64
2021/09/16 04:14:35;;;;;;;19.60;12.68;;;;;;;16.65;63.32;99767.34;10393196;28;20049;-64
2021/09/16 04:19:37;;;;;;;17.27;14.05;;;;;;;16.62;63.30;99770.28;10393087;28;20761;-64
2021/09/16 04:24:39;;;;;;;18.35;13.30;;;;;;;16.57;63.30;99776.94;10392766;28;20056;-64
2021/09/16 04:29:41;;;;;;;18.73;13.00;;;;;;;16.53;63.23;99786.09;10392954;28;20541;-64
2021/09/16 04:34:43;;;;;;;16.92;13.32;;;;;;;16.46;63.29;99783.13;10393055;28;20045;-64
2021/09/16 04:39:44;;;;;;;19.35;13.02;;;;;;;16.40;62.49;99796.84;10392116;28;20418;-64
2021/09/16 04:44:46;;;;;;;16.35;12.07;;;;;;;16.38;62.46;99800.56;10392753;28;20067;-64
2021/09/16 04:49:48;;;;;;;20.60;11.82;;;;;;;16.10;62.05;99802.91;10392709;28;20100;-64
2021/09/16 04:54:49;;;;;;;15.57;10.70;;;;;;;15.99;62.57;99816.19;10392229;28;20501;-64
2021/09/16 04:59:53;;;;;;;18.52;9.85;;;;;;;15.86;62.89;99817.31;10392438;28;20339;-64
2021/09/16 05:04:55;;;;;;;16.27;8.98;;;;;;;15.81;62.40;99837.97;10392312;28;20053;-64
2021/09/16 05:09:56;;;;;;;19.08;9.18;;;;;;;15.68;62.67;99837.28;10391677;28;20063;-64
2021/09/16 05:14:58;;;;;;;11.88;7.88;;;;;;;15.53;62.14;99834.09;10392306;28;20073;-64
2021/09/16 05:20:00;;;;;;;17.15;7.93;;;;;;;15.37;62.66;99836.28;10392020;28;20049;-64
2021/09/16 05:25:02;;;;;;;11.63;6.20;;;;;;;15.26;62.39;99845.06;10392268;28;20060;-63
2021/09/16 05:30:05;;;;;;;13.48;6.38;;;;;;;15.19;62.71;99853.56;10391599;28;20148;-64
2021/09/16 05:35:07;;;;;;;12.73;6.45;;;;;;;15.27;62.63;99864.34;10391671;28;20531;-64
2021/09/16 05:40:10;;;;;;;15.88;6.55;;;;;;;15.31;62.33;99865.75;10391604;28;20073;-63
2021/09/16 05:45:12;;;;;;;12.68;6.05;;;;;;;15.39;62.02;99865.97;10391101;28;20053;-63
2021/09/16 05:50:14;;;;;;;11.55;6.47;;;;;;;15.42;62.08;99876.28;10391663;28;20528;-65
2021/09/16 05:55:15;;;;;;;11.88;6.25;;;;;;;15.50;61.79;99873.06;10398589;28;20308;-64
2021/09/16 06:00:17;;;;;;;10.85;6.13;;;;;;;15.50;61.94;99876.53;10398492;28;20069;-65
2021/09/16 06:05:19;;;;;;;13.52;6.00;;;;;;;15.58;61.66;99889.94;10398362;28;20107;-65
2021/09/16 06:10:21;;;;;;;14.52;5.82;;;;;;;15.62;61.08;99887.88;10397606;28;20063;-65
2021/09/16 06:15:23;;;;;;;17.00;5.75;;;;;;;15.62;61.21;99879.97;10397788;28;20064;-65
2021/09/16 06:20:26;;;;;;;12.82;5.88;;;;;;;15.64;60.78;99892.06;10398009;28;20311;-64
2021/09/16 06:25:30;;;;;;;10.90;5.57;;;;;;;15.78;60.53;99897.06;10397538;28;20054;-65
2021/09/16 06:30:32;;;;;;;9.88;4.68;;;;;;;15.81;60.69;99898.63;10397231;28;20536;-66
2021/09/16 06:35:34;;;;;;;16.17;4.72;;;;;;;15.93;60.21;99902.88;10397600;28;20128;-65
2021/09/16 06:40:35;;;;;;;8.40;4.10;;;;;;;16.34;59.79;99894.16;10396901;28;20507;-64
2021/09/16 06:45:37;;;;;;;9.93;4.10;;;;;;;16.53;59.22;99897.78;10396493;28;21188;-64
2021/09/16 06:50:39;;;;;;;9.75;3.40;;;;;;;16.55;58.43;99898.50;10396862;28;20072;-64
2021/09/16 06:55:41;;;;;;;11.60;3.80;;;;;;;16.75;58.73;99899.47;10396412;28;20053;-66
2021/09/16 07:00:43;;;;;;;8.05;3.42;;;;;;;16.76;58.26;99911.69;10395510;28;20511;-64
2021/09/16 07:05:44;;;;;;;8.50;3.63;;;;;;;16.62;58.44;99909.38;10395800;28;20427;-64
2021/09/16 07:10:46;;;;;;;13.82;3.88;;;;;;;16.52;58.75;99908.50;10395838;28;20054;-65
2021/09/16 07:15:48;;;;;;;11.23;4.00;;;;;;;16.65;58.54;99909.13;10394176;28;20061;-63
2021/09/16 07:20:50;;;;;;;10.25;4.07;;;;;;;17.00;56.78;99909.56;10395158;28;20077;-64
2021/09/16 07:25:51;;;;;;;7.82;3.70;;;;;;;17.07;56.42;99915.16;10395054;28;20421;-64
2021/09/16 07:30:53;;;;;;;14.70;3.60;;;;;;;17.27;56.93;99928.31;10394723;28;20578;-64
2021/09/16 07:35:55;;;;;;;9.40;3.35;;;;;;;17.64;56.02;99928.59;10394654;28;20057;-64
2021/09/16 07:40:57;;;;;;;10.32;3.08;;;;;;;18.14;54.91;99916.94;10394714;28;20128;-64
2021/09/16 07:45:58;;;;;;;14.20;3.00;;;;;;;18.36;53.78;99919.31;10394036;28;20063;-64
2021/09/16 07:51:00;;;;;;;7.40;2.63;;;;;;;18.68;52.77;99921.63;10394857;28;20067;-64
2021/09/16 07:56:02;;;;;;;11.43;2.33;;;;;;;18.71;52.78;99931.94;10393936;28;20111;-64
2021/09/16 08:01:04;;;;;;;11.75;2.50;;;;;;;18.58;52.59;99937.53;10393658;28;20480;-64
2021/09/16 08:06:06;;;;;;;6.63;2.10;;;;;;;18.11;52.48;99927.81;10394187;28;20064;-64
2021/09/16 08:11:07;;;;;;;4.75;2.10;;;;;;;17.83;53.38;99926.78;10393480;28;20049;-64
2021/09/16 08:16:09;;;;;;;9.43;2.30;;;;;;;17.65;53.61;99939.03;10392314;28;20071;-64
2021/09/16 08:21:13;;;;;;;6.25;2.35;;;;;;;17.68;53.97;99948.50;10393374;28;20049;-66
2021/09/16 08:26:16;;;;;;;6.97;2.53;;;;;;;17.70;53.46;99957.13;10393009;28;20398;-65
2021/09/16 08:31:19;;;;;;;7.95;2.50;;;;;;;17.61;53.56;99947.34;10393434;28;20049;-63
2021/09/16 08:36:21;;;;;;;7.85;2.50;;;;;;;17.55;53.91;99948.75;10392723;28;20818;-64
2021/09/16 08:41:23;;;;;;;6.72;2.17;;;;;;;17.54;53.63;99967.41;10392713;28;20061;-64
2021/09/16 08:46:24;;;;;;;4.68;2.40;;;;;;;17.65;53.81;99965.47;10392434;28;20057;-64
2021/09/16 08:51:27;;;;;;;5.70;2.03;;;;;;;17.44;52.90;99967.38;10392723;28;20540;-64
2021/09/16 08:56:29;;;;;;;5.70;1.90;;;;;;;17.84;51.99;99965.53;10392124;28;20509;-64
2021/09/16 09:01:31;;;;;;;6.97;2.20;;;;;;;18.17;50.98;99966.09;10392171;28;20064;-64
2021/09/16 09:06:37;;;;;;;5.72;2.13;;;;;;;18.03;51.75;99974.47;10392148;28;20145;-64
2021/09/16 09:12:09;;;;;;;6.60;2.10;;;;;;;17.66;52.71;99972.47;10392057;28;20521;-64
2021/09/16 09:17:19;;;;;;;6.18;2.20;;;;;;;17.75;53.61;99973.47;10392033;28;20060;-64
2021/09/16 09:22:29;;;;;;;6.32;2.67;;;;;;;17.78;53.39;99968.72;10392165;28;20136;-64
2021/09/16 09:27:34;;;;;;;6.10;2.10;;;;;;;17.63;53.26;99978.00;10396126;28;20527;-63
2021/09/16 09:33:00;;;;;;;7.45;2.15;;;;;;;17.64;51.86;99978.84;10431889;28;20053;-64
2021/09/16 09:38:25;;;;;;;6.15;2.05;;;;;;;17.96;53.10;99983.91;10440544;28;20059;-64
2021/09/16 09:43:26;;;;;;;9.07;2.17;;;;;;;18.40;52.28;99984.25;10439868;28;20497;-64
2021/09/16 09:48:30;;;;;;;3.75;1.70;;;;;;;18.61;50.96;99977.00;10439768;28;20075;-64
2021/09/16 09:53:45;;;;;;;4.85;1.73;;;;;;;18.86;50.01;99970.25;10440023;28;20563;-64
2021/09/16 09:59:07;;;;;;;4.78;1.60;;;;;;;19.00;50.41;99971.59;10439637;28;20053;-64
2021/09/16 10:04:26;;;;;;;4.97;1.58;;;;;;;18.90;48.96;99987.53;10439595;28;20053;-64
2021/09/16 10:09:28;;;;;;;12.80;2.25;;;;;;;18.69;50.45;99980.75;10439058;28;20056;-64
2021/09/16 10:14:30;;;;;;;3.53;1.38;;;;;;;18.73;50.22;99979.50;10438970;28;20858;-65
2021/09/16 10:19:31;;;;;;;5.40;1.73;;;;;;;18.77;50.11;99979.03;10438697;28;20456;-65
2021/09/16 10:24:33;;;;;;;3.17;1.38;;;;;;;18.88;50.00;99978.06;10439055;28;20053;-66
2021/09/16 10:29:36;;;;;;;6.00;1.60;;;;;;;19.19;49.98;99977.72;10429685;28;20387;-66
2021/09/16 10:34:44;;;;;;;3.60;1.50;;;;;;;19.34;49.84;99970.94;10395844;28;20267;-65
2021/09/16 10:39:47;;;;;;;8.23;1.65;;;;;;;19.58;49.09;99966.94;10396394;28;20600;-66
2021/09/16 10:45:05;;;;;;;6.53;1.77;;;;;;;19.74;48.35;99961.81;10395484;28;20140;-66
2021/09/16 10:50:19;;;;;;;5.00;1.67;;;;;;;20.11;47.21;99965.22;10396187;28;20152;-66
2021/09/16 10:55:38;;;;;;;9.15;1.75;;;;;;;20.22;47.34;99962.34;10395085;28;20092;-66
2021/09/16 11:00:40;;;;;;;3.30;1.45;;;;;;;20.11;48.20;99962.56;10396366;28;20088;-66
2021/09/16 11:05:48;;;;;;;5.28;1.63;;;;;;;19.92;48.45;99958.25;10395735;28;20083;-66
2021/09/16 11:10:52;;;;;;;5.80;1.52;;;;;;;19.82;48.31;99959.28;10395472;28;20072;-66
2021/09/16 11:15:53;;;;;;;5.85;1.60;;;;;;;19.80;48.75;99962.06;10395591;28;20073;-66
2021/09/16 11:21:20;;;;;;;3.28;1.50;;;;;;;20.36;47.40;99955.66;10395446;28;20052;-65
2021/09/16 11:26:23;;;;;;;3.10;1.48;;;;;;;20.45;46.57;99944.94;10395114;28;20053;-65
2021/09/16 11:31:25;;;;;;;4.28;1.40;;;;;;;20.87;45.49;99950.41;10394958;28;20060;-65
2021/09/16 11:36:27;;;;;;;2.75;1.40;;;;;;;21.01;46.28;99949.84;10394946;28;20722;-65
2021/09/16 11:41:29;;;;;;;5.68;1.75;;;;;;;21.28;45.55;99943.50;10394438;28;20537;-65
2021/09/16 11:46:31;;;;;;;3.55;1.50;;;;;;;21.23;45.26;99954.63;10394178;28;20088;-64
2021/09/16 11:51:33;;;;;;;6.88;1.50;;;;;;;20.50;46.58;99947.97;10394104;28;20049;-64
2021/09/16 11:56:35;;;;;;;6.78;2.08;;;;;;;20.06;47.29;99951.56;10394142;28;20049;-66
2021/09/16 12:01:36;;;;;;;4.65;1.95;;;;;;;19.67;48.33;99950.13;10393906;28;20140;-64
2021/09/16 12:06:39;;;;;;;6.25;1.90;;;;;;;19.59;49.25;99944.72;10414623;28;20110;-64
2021/09/16 12:11:40;;;;;;;6.22;1.90;;;;;;;19.52;49.36;99941.84;10434720;28;20053;-64
2021/09/16 12:16:44;;;;;;;4.53;1.92;;;;;;;19.65;49.56;99944.13;10434863;28;20067;-63
2021/09/16 12:21:52;;;;;;;5.53;2.08;;;;;;;19.83;48.81;99942.34;10434380;28;20056;-66
2021/09/16 12:26:55;;;;;;;6.47;2.25;;;;;;;20.03;48.67;99939.41;10434280;28;20049;-66
2021/09/16 12:31:58;;;;;;;5.82;2.20;;;;;;;20.32;47.76;99941.84;10405985;28;20057;-64
2021/09/16 12:37:05;;;;;;;14.80;2.35;;;;;;;20.67;47.96;99936.50;10392939;28;20049;-63
2021/09/16 12:42:14;;;;;;;4.22;2.10;;;;;;;20.92;46.73;99940.16;10393246;28;20132;-64
2021/09/16 12:47:17;;;;;;;6.70;2.22;;;;;;;21.25;45.69;99930.53;10392516;28;20136;-64
2021/09/16 12:52:23;;;;;;;4.00;2.00;;;;;;;21.62;44.84;99921.19;10392379;28;20063;-64
2021/09/16 12:57:37;;;;;;;4.40;1.90;;;;;;;21.68;44.00;99922.41;10393042;28;20056;-65
2021/09/16 13:02:45;;;;;;;7.97;2.38;;;;;;;21.59;44.52;99920.69;10398638;28;20073;-64
2021/09/16 13:08:09;;;;;;;4.85;2.10;;;;;;;21.82;43.34;99924.44;10400507;28;20064;-65
2021/09/16 13:13:14;;;;;;;3.88;1.75;;;;;;;21.65;43.28;99922.72;10396472;28;20454;-65
2021/09/16 13:18:16;;;;;;;6.63;1.90;;;;;;;21.41;43.69;99927.97;10400242;28;20053;-64
2021/09/16 13:23:18;;;;;;;5.35;2.20;;;;;;;20.89;44.50;99924.50;10399707;28;20552;-64
2021/09/16 13:28:20;;;;;;;5.22;1.95;;;;;;;20.69;46.10;99923.91;10399622;28;20064;-64
2021/09/16 13:33:21;;;;;;;4.95;2.00;;;;;;;20.61;45.88;99925.66;10399824;28;20057;-64
2021/09/16 13:38:23;;;;;;;6.10;2.35;;;;;;;20.44;46.48;99921.19;10399503;28;20739;-64
2021/09/16 13:43:25;;;;;;;4.45;2.08;;;;;;;20.49;47.12;99925.06;10399574;28;20535;-64
2021/09/16 13:48:26;;;;;;;7.07;2.20;;;;;;;20.63;46.74;99923.69;10399387;28;20575;-64
2021/09/16 13:53:28;;;;;;;6.15;2.30;;;;;;;20.65;47.12;99914.56;10398869;28;20053;-64
2021/09/16 13:58:30;;;;;;;8.00;2.00;;;;;;;20.64;46.73;99915.53;10398572;28;20155;-65
2021/09/16 14:03:33;;;;;;;5.90;2.05;;;;;;;20.91;47.05;99915.38;10397113;28;20561;-64
2021/09/16 14:08:35;;;;;;;11.45;2.40;;;;;;;21.12;47.26;99908.84;10396630;28;20107;-64
2021/09/16 14:13:41;;;;;;;8.25;2.03;;;;;;;21.00;46.55;99906.47;10396503;28;20448;-64
2021/09/16 14:18:43;;;;;;;6.82;1.80;;;;;;;20.95;45.96;99911.41;10398041;28;20053;-64
2021/09/16 14:23:45;;;;;;;7.28;1.90;;;;;;;20.98;45.41;99907.63;10397595;28;20045;-64
2021/09/16 14:28:46;;;;;;;5.78;1.70;;;;;;;21.16;44.90;99900.38;10397578;28;20055;-64
2021/09/16 14:33:48;;;;;;;6.47;1.90;;;;;;;21.06;45.20;99899.69;10397420;28;20075;-64
2021/09/16 14:38:50;;;;;;;5.18;1.60;;;;;;;20.99;45.62;99898.63;10397326;28;20057;-65
2021/09/16 14:43:52;;;;;;;7.95;1.60;;;;;;;21.06;45.58;99895.19;10396609;28;20413;-64
2021/09/16 14:48:54;;;;;;;9.27;1.88;;;;;;;21.03;45.37;99900.81;10396624;28;20059;-64
2021/09/16 14:53:57;;;;;;;7.07;2.08;;;;;;;20.87;45.13;99906.06;10396474;28;20060;-64
2021/09/16 14:58:59;;;;;;;8.55;2.22;;;;;;;20.79;45.27;99905.16;10396204;28;20352;-64
2021/09/16 15:04:04;;;;;;;5.47;1.80;;;;;;;20.71;45.52;99899.81;10396012;28;20067;-64
2021/09/16 15:09:06;;;;;;;4.75;1.63;;;;;;;20.58;45.44;99889.59;10395754;28;20060;-64
2021/09/16 15:14:08;;;;;;;7.47;1.90;;;;;;;20.52;45.92;99892.84;10395317;28;20141;-65
2021/09/16 15:19:10;;;;;;;4.55;1.88;;;;;;;20.49;46.20;99898.47;10394988;28;20514;-64
2021/09/16 15:24:12;;;;;;;6.07;2.00;;;;;;;20.36;46.59;99898.03;10394680;28;20080;-64
2021/09/16 15:29:14;;;;;;;6.70;1.90;;;;;;;20.38;46.91;99892.59;10395068;28;20069;-64
2021/09/16 15:34:16;;;;;;;7.22;2.00;;;;;;;20.43;46.85;99904.41;10394956;28;20476;-65
2021/09/16 15:39:18;;;;;;;5.85;1.85;;;;;;;20.39;47.18;99904.88;10394666;28;20089;-64
2021/09/16 15:44:20;;;;;;;9.02;2.03;;;;;;;20.23;47.51;99898.44;10394558;28;20140;-64
2021/09/16 15:49:22;;;;;;;6.10;2.00;;;;;;;20.13;48.09;99894.22;10394173;28;20498;-64
2021/09/16 15:54:24;;;;;;;6.60;1.83;;;;;;;20.00;48.33;99899.06;10393768;28;20910;-63
2021/09/16 15:59:25;;;;;;;7.28;1.90;;;;;;;19.96;48.45;99903.88;10394023;28;20523;-63
2021/09/16 16:04:27;;;;;;;6.57;2.13;;;;;;;19.85;48.95;99914.69;10393632;28;20057;-63
2021/09/16 16:09:29;;;;;;;3.88;2.05;;;;;;;19.80;48.79;99926.72;10393117;28;20380;-63
2021/09/16 16:14:31;;;;;;;5.75;2.20;;;;;;;19.78;49.32;99915.41;10393461;28;20060;-63
2021/09/16 16:19:32;;;;;;;6.32;2.15;;;;;;;19.66;49.37;99921.94;10393479;28;20085;-64
2021/09/16 16:24:34;;;;;;;6.38;2.40;;;;;;;19.69;49.65;99919.81;10392688;28;20511;-63
2021/09/16 16:29:36;;;;;;;5.40;2.13;;;;;;;19.69;49.88;99918.97;10392605;28;20135;-63
2021/09/16 16:34:37;;;;;;;10.50;2.47;;;;;;;19.76;50.03;99928.84;10392211;28;20049;-65
2021/09/16 16:39:39;;;;;;;7.95;2.47;;;;;;;19.74;50.49;99920.19;10393111;28;20057;-65
2021/09/16 16:44:41;;;;;;;6.85;2.40;;;;;;;19.63;49.95;99927.50;10395237;28;20069;-64
2021/09/16 16:49:43;;;;;;;7.93;2.47;;;;;;;19.48;50.32;99925.38;10392319;28;20057;-64
2021/09/16 16:54:45;;;;;;;6.82;2.42;;;;;;;19.28;51.06;99926.47;10391465;28;20049;-64
2021/09/16 16:59:46;;;;;;;5.47;2.20;;;;;;;19.11;51.72;99921.94;10392534;28;20490;-64
2021/09/16 17:04:48;;;;;;;5.50;2.20;;;;;;;18.98;51.59;99932.00;10392944;28;20194;-64
2021/09/16 17:09:49;;;;;;;6.45;2.63;;;;;;;18.89;51.83;99932.03;10392315;28;20061;-64
2021/09/16 17:14:51;;;;;;;9.00;2.40;;;;;;;18.82;52.31;99939.72;10391835;28;20512;-64
2021/09/16 17:19:53;;;;;;;4.63;2.47;;;;;;;18.73;52.73;99934.47;10392055;28;20152;-64
2021/09/16 17:24:55;;;;;;;6.47;2.70;;;;;;;18.70;53.02;99940.88;10392098;28;20387;-64
2021/09/16 17:29:56;;;;;;;8.68;2.72;;;;;;;18.60;53.18;99926.81;10391762;28;20061;-64
2021/09/16 17:34:58;;;;;;;6.90;2.42;;;;;;;18.42;52.77;99925.88;10391721;28;20053;-63
2021/09/16 17:40:00;;;;;;;7.50;2.88;;;;;;;18.35;53.41;99936.19;10391539;28;20429;-63
2021/09/16 17:45:02;;;;;;;9.73;2.45;;;;;;;18.15;53.68;99937.13;10391655;28;20136;-63
2021/09/16 17:50:06;;;;;;;9.82;2.88;;;;;;;18.11;54.41;99934.91;10398791;28;20066;-63
2021/09/16 17:55:10;;;;;;;7.95;2.88;;;;;;;18.01;54.78;99934.06;10399384;28;20136;-62
2021/09/16 18:00:14;;;;;;;12.95;3.55;;;;;;;17.88;54.95;99942.28;10398247;28;20536;-62
2021/09/16 18:05:22;;;;;;;6.78;2.50;;;;;;;17.82;55.19;99945.47;10396277;28;20140;-63
2021/09/16 18:10:23;;;;;;;13.27;2.83;;;;;;;17.63;55.85;99943.63;10397924;28;20095;-65
2021/09/16 18:15:25;;;;;;;7.05;3.00;;;;;;;17.59;56.87;99955.44;10397886;28;20571;-64
2021/09/16 18:20:27;;;;;;;11.80;2.80;;;;;;;17.55;56.96;99955.84;10397876;28;20136;-64
2021/09/16 18:25:29;;;;;;;10.52;2.78;;;;;;;17.43;57.19;99960.41;10397278;28;20045;-64
2021/09/16 18:30:30;;;;;;;8.38;2.92;;;;;;;17.23;57.51;99973.66;10397595;28;20081;-64
2021/09/16 18:35:32;;;;;;;14.40;3.47;;;;;;;17.03;57.85;99978.00;10397233;28;20053;-64
2021/09/16 18:40:33;;;;;;;13.80;3.50;;;;;;;16.89;58.44;99979.19;10396948;28;20053;-64
2021/09/16 18:45:35;;;;;;;10.50;2.90;;;;;;;16.76;58.70;99985.63;10397238;28;20315;-64
2021/09/16 18:50:37;;;;;;;8.20;3.40;;;;;;;16.66;59.43;99982.94;10396532;28;20053;-64
2021/09/16 18:55:39;;;;;;;7.55;3.90;;;;;;;16.51;59.68;99986.84;10395125;28;20076;-64
2021/09/16 19:00:40;;;;;;;7.70;3.63;;;;;;;16.33;60.56;99988.34;10395088;28;20506;-64
2021/09/16 19:05:42;;;;;;;9.45;4.05;;;;;;;16.18;61.33;100001.00;10395868;28;20049;-64
2021/09/16 19:10:44;;;;;;;10.05;4.25;;;;;;;16.02;62.21;100002.34;10395293;28;20530;-64
2021/09/16 19:15:46;;;;;;;7.80;3.70;;;;;;;15.95;62.52;100007.31;10395777;28;20144;-64
2021/09/16 19:20:50;;;;;;;5.90;3.72;;;;;;;15.89;62.59;100014.88;10395485;28;20073;-64
2021/09/16 19:25:52;;;;;;;7.72;4.20;;;;;;;15.83;62.80;100025.91;10395373;28;20059;-64
2021/09/16 19:30:59;;;;;;;8.73;4.13;;;;;;;15.83;62.94;100029.41;10394618;28;20809;-64
2021/09/16 19:36:00;;;;;;;7.38;4.30;;;;;;;15.79;63.29;100024.50;10395077;28;20057;-64
2021/09/16 19:41:02;;;;;;;8.85;4.30;;;;;;;15.75;63.30;100023.91;10394515;28;20057;-64
2021/09/16 19:46:04;;;;;;;10.85;4.05;;;;;;;15.79;63.32;100021.84;10394229;28;20064;-64
2021/09/16 19:51:06;;;;;;;12.60;4.20;;;;;;;15.89;63.35;100028.06;10393918;28;20053;-64
2021/09/16 19:56:08;;;;;;;12.25;4.20;;;;;;;15.98;62.77;100022.88;10393815;28;20079;-64
2021/09/16 20:01:09;;;;;;;7.40;4.18;;;;;;;16.08;62.70;100020.34;10392195;28;20556;-64
2021/09/16 20:06:11;;;;;;;9.82;4.28;;;;;;;16.15;62.38;100026.78;10393672;28;20077;-64
2021/09/16 20:11:13;;;;;;;7.57;4.30;;;;;;;16.20;62.42;100029.91;10392812;28;20568;-64
2021/09/16 20:16:15;;;;;;;13.52;4.30;;;;;;;16.15;62.36;100034.72;10393123;28;20054;-64
2021/09/16 20:21:17;;;;;;;7.82;4.20;;;;;;;16.18;62.45;100031.84;10393470;28;20500;-65
2021/09/16 20:26:19;;;;;;;8.23;3.90;;;;;;;16.28;62.07;100035.41;10392988;28;20055;-64
2021/09/16 20:31:20;;;;;;;9.45;4.75;;;;;;;16.36;61.79;100037.41;10392921;28;20065;-65
2021/09/16 20:36:22;;;;;;;7.65;3.92;;;;;;;16.36;61.99;100040.06;10392938;28;20540;-64
2021/09/16 20:41:25;;;;;;;12.13;4.03;;;;;;;16.35;62.19;100035.72;10393337;28;20053;-64
2021/09/16 20:46:27;;;;;;;8.77;4.18;;;;;;;16.32;62.03;100035.97;10393179;28;20136;-64
2021/09/16 20:51:29;;;;;;;10.55;4.45;;;;;;;16.24;61.96;100034.78;10392385;28;20057;-65
2021/09/16 20:56:31;;;;;;;9.30;4.38;;;;;;;16.21;62.10;100029.78;10392674;28;20063;-64
2021/09/16 21:01:33;;;;;;;14.55;4.78;;;;;;;16.08;62.62;100026.44;10392281;28;20054;-64
2021/09/16 21:06:35;;;;;;;16.33;4.80;;;;;;;15.91;62.86;100034.91;10392633;28;20177;-64
2021/09/16 21:11:36;;;;;;;9.55;4.88;;;;;;;15.79;63.20;100035.88;10391976;28;20472;-64
2021/09/16 21:16:38;;;;;;;12.93;5.38;;;;;;;15.60;63.38;100032.16;10392081;28;20110;-64
2021/09/16 21:21:40;;;;;;;7.47;5.22;;;;;;;15.52;63.76;100043.31;10394921;28;20053;-64
2021/09/16 21:26:43;;;;;;;10.55;4.80;;;;;;;15.42;64.13;100037.06;10399956;28;20331;-64
2021/09/16 21:31:45;;;;;;;10.48;5.75;;;;;;;15.36;63.83;100040.19;10399509;28;20053;-64
2021/09/16 21:36:46;;;;;;;14.40;5.43;;;;;;;15.26;64.41;100042.69;10399760;28;20138;-64
2021/09/16 21:41:48;;;;;;;10.15;5.30;;;;;;;15.25;64.24;100035.72;10399192;28;20489;-64
2021/09/16 21:46:50;;;;;;;11.10;6.13;;;;;;;15.18;64.49;100041.59;10399041;28;20057;-64
2021/09/16 21:51:52;;;;;;;11.52;5.47;;;;;;;15.04;64.77;100039.19;10398961;28;20064;-64
2021/09/16 21:56:53;;;;;;;7.28;5.00;;;;;;;15.03;64.64;100042.75;10398510;28;20049;-64
2021/09/16 22:01:55;;;;;;;10.23;6.35;;;;;;;14.91;65.12;100035.78;10398454;28;20049;-64
2021/09/16 22:06:57;;;;;;;11.43;5.65;;;;;;;14.88;64.96;100043.94;10397949;28;20410;-64
2021/09/16 22:11:58;;;;;;;13.02;6.57;;;;;;;14.81;64.96;100040.06;10397785;28;20088;-64
2021/09/16 22:17:00;;;;;;;9.70;6.22;;;;;;;14.62;65.33;100052.94;10397770;28;20454;-64
2021/09/16 22:22:02;;;;;;;10.70;6.05;;;;;;;14.61;65.29;100059.16;10397295;28;20512;-64
2021/09/16 22:27:04;;;;;;;9.20;6.55;;;;;;;14.59;65.38;100059.28;10397967;28;20060;-64
2021/09/16 22:32:06;;;;;;;10.70;7.13;;;;;;;14.56;65.37;100065.59;10396403;28;20498;-64
2021/09/16 22:37:08;;;;;;;14.40;6.97;;;;;;;14.51;65.41;100065.09;10396827;28;20053;-64
2021/09/16 22:42:09;;;;;;;10.10;7.30;;;;;;;14.47;65.46;100049.63;10397276;28;20064;-64
2021/09/16 22:47:11;;;;;;;16.85;7.93;;;;;;;14.43;65.47;100056.06;10396755;28;20061;-64
2021/09/16 22:52:13;;;;;;;12.23;7.97;;;;;;;14.38;65.45;100050.28;10394899;28;20061;-64
2021/09/16 22:57:15;;;;;;;14.18;9.68;;;;;;;14.19;65.70;100052.56;10395240;28;20061;-64
2021/09/16 23:02:16;;;;;;;11.13;8.40;;;;;;;14.07;65.96;100051.69;10396191;28;20056;-64
2021/09/16 23:07:18;;;;;;;15.77;9.40;;;;;;;13.96;66.43;100051.63;10396210;28;20057;-64
2021/09/16 23:12:20;;;;;;;13.82;7.60;;;;;;;13.97;66.46;100055.94;10395855;28;20140;-64
2021/09/16 23:17:22;;;;;;;14.57;7.88;;;;;;;14.01;66.07;100060.00;10395585;28;20244;-64